sensor_id;sensor_type;location;lat;lon;timestamp;P1;durP1;ratioP1;P2;durP2;ratioP2
3433;SDS011;1730;41.932;25.548;2023-08-20T00:00:27;18.00;;;16.20;;
3433;SDS011;1730;41.932;25.548;2023-08-20T00:03:08;18.90;;;17.13;;
3433;SDS011;1730;41.932;25.548;2023-08-20T00:05:37;18.63;;;16.87;;
3433;SDS011;1730;41.932;25.548;2023-08-20T00:08:03;18.67;;;16.90;;
3433;SDS011;1730;41.932;25.548;2023-08-20T00:10:29;19.60;;;17.80;;
3433;SDS011;1730;41.932;25.548;2023-08-20T00:12:57;17.40;;;15.70;;
3433;SDS011;1730;41.932;25.548;2023-08-20T00:15:22;23.93;;;17.37;;
3433;SDS011;1730;41.932;25.548;2023-08-20T00:17:52;18.27;;;16.40;;
3433;SDS011;1730;41.932;25.548;2023-08-20T00:20:20;18.60;;;16.90;;
3433;SDS011;1730;41.932;25.548;2023-08-20T00:22:48;18.37;;;16.53;;
3433;SDS011;1730;41.932;25.548;2023-08-20T00:25:14;18.37;;;16.13;;
3433;SDS011;1730;41.932;25.548;2023-08-20T00:27:41;18.90;;;16.90;;
3433;SDS011;1730;41.932;25.548;2023-08-20T00:30:08;18.40;;;16.63;;
3433;SDS011;1730;41.932;25.548;2023-08-20T00:32:35;19.17;;;17.33;;
3433;SDS011;1730;41.932;25.548;2023-08-20T00:35:01;17.80;;;15.90;;
3433;SDS011;1730;41.932;25.548;2023-08-20T00:37:34;21.93;;;17.30;;
3433;SDS011;1730;41.932;25.548;2023-08-20T00:40:00;17.90;;;16.13;;
3433;SDS011;1730;41.932;25.548;2023-08-20T00:42:30;18.03;;;15.03;;
3433;SDS011;1730;41.932;25.548;2023-08-20T00:44:56;18.40;;;16.70;;
3433;SDS011;1730;41.932;25.548;2023-08-20T00:47:22;20.77;;;17.37;;
3433;SDS011;1730;41.932;25.548;2023-08-20T00:49:49;18.13;;;16.43;;
3433;SDS011;1730;41.932;25.548;2023-08-20T00:52:16;26.80;;;15.10;;
3433;SDS011;1730;41.932;25.548;2023-08-20T00:54:45;17.60;;;15.90;;
3433;SDS011;1730;41.932;25.548;2023-08-20T00:57:13;17.70;;;15.83;;
3433;SDS011;1730;41.932;25.548;2023-08-20T00:59:40;17.40;;;15.80;;
3433;SDS011;1730;41.932;25.548;2023-08-20T01:02:08;16.47;;;14.40;;
3433;SDS011;1730;41.932;25.548;2023-08-20T01:04:40;17.20;;;15.60;;
3433;SDS011;1730;41.932;25.548;2023-08-20T01:10:01;17.43;;;15.60;;
3433;SDS011;1730;41.932;25.548;2023-08-20T01:12:34;16.93;;;15.43;;
3433;SDS011;1730;41.932;25.548;2023-08-20T01:15:03;17.70;;;14.30;;
3433;SDS011;1730;41.932;25.548;2023-08-20T01:17:30;16.93;;;15.53;;
3433;SDS011;1730;41.932;25.548;2023-08-20T01:19:56;17.00;;;15.60;;
3433;SDS011;1730;41.932;25.548;2023-08-20T01:28:31;17.07;;;15.53;;
3433;SDS011;1730;41.932;25.548;2023-08-20T01:30:59;17.50;;;15.80;;
3433;SDS011;1730;41.932;25.548;2023-08-20T01:33:30;17.53;;;15.90;;
3433;SDS011;1730;41.932;25.548;2023-08-20T01:35:58;16.80;;;15.30;;
3433;SDS011;1730;41.932;25.548;2023-08-20T01:38:24;17.23;;;15.60;;
3433;SDS011;1730;41.932;25.548;2023-08-20T01:40:49;18.50;;;14.90;;
3433;SDS011;1730;41.932;25.548;2023-08-20T01:43:15;16.23;;;14.73;;
3433;SDS011;1730;41.932;25.548;2023-08-20T01:45:41;17.17;;;14.93;;
3433;SDS011;1730;41.932;25.548;2023-08-20T01:48:10;20.47;;;16.10;;
3433;SDS011;1730;41.932;25.548;2023-08-20T01:50:36;17.00;;;15.40;;
3433;SDS011;1730;41.932;25.548;2023-08-20T01:53:02;16.57;;;15.17;;
3433;SDS011;1730;41.932;25.548;2023-08-20T01:55:28;17.57;;;15.80;;
3433;SDS011;1730;41.932;25.548;2023-08-20T01:57:54;17.93;;;15.27;;
3433;SDS011;1730;41.932;25.548;2023-08-20T02:00:21;16.87;;;15.47;;
3433;SDS011;1730;41.932;25.548;2023-08-20T02:02:48;19.03;;;15.67;;
3433;SDS011;1730;41.932;25.548;2023-08-20T02:05:15;16.90;;;15.07;;
3433;SDS011;1730;41.932;25.548;2023-08-20T02:07:41;18.10;;;14.00;;
3433;SDS011;1730;41.932;25.548;2023-08-20T02:10:06;14.77;;;13.17;;
3433;SDS011;1730;41.932;25.548;2023-08-20T02:12:33;16.40;;;14.90;;
3433;SDS011;1730;41.932;25.548;2023-08-20T02:14:59;23.80;;;16.03;;
3433;SDS011;1730;41.932;25.548;2023-08-20T02:17:25;18.23;;;16.43;;
3433;SDS011;1730;41.932;25.548;2023-08-20T02:19:53;17.70;;;15.33;;
3433;SDS011;1730;41.932;25.548;2023-08-20T02:22:19;17.97;;;16.17;;
3433;SDS011;1730;41.932;25.548;2023-08-20T02:24:46;16.43;;;14.90;;
3433;SDS011;1730;41.932;25.548;2023-08-20T02:27:11;17.70;;;14.90;;
3433;SDS011;1730;41.932;25.548;2023-08-20T02:29:37;18.33;;;15.80;;
3433;SDS011;1730;41.932;25.548;2023-08-20T02:32:03;16.50;;;14.97;;
3433;SDS011;1730;41.932;25.548;2023-08-20T02:34:30;16.13;;;14.73;;
3433;SDS011;1730;41.932;25.548;2023-08-20T02:36:57;18.83;;;14.23;;
3433;SDS011;1730;41.932;25.548;2023-08-20T02:39:23;16.80;;;14.70;;
3433;SDS011;1730;41.932;25.548;2023-08-20T02:41:50;17.03;;;15.00;;
3433;SDS011;1730;41.932;25.548;2023-08-20T02:44:16;16.77;;;15.00;;
3433;SDS011;1730;41.932;25.548;2023-08-20T02:46:41;15.90;;;14.30;;
3433;SDS011;1730;41.932;25.548;2023-08-20T02:49:09;14.97;;;13.50;;
3433;SDS011;1730;41.932;25.548;2023-08-20T02:51:35;15.30;;;14.00;;
3433;SDS011;1730;41.932;25.548;2023-08-20T02:54:01;16.93;;;14.23;;
3433;SDS011;1730;41.932;25.548;2023-08-20T02:56:27;16.40;;;14.63;;
3433;SDS011;1730;41.932;25.548;2023-08-20T02:58:52;20.70;;;14.70;;
3433;SDS011;1730;41.932;25.548;2023-08-20T03:01:21;16.70;;;14.03;;
3433;SDS011;1730;41.932;25.548;2023-08-20T03:03:49;16.80;;;13.70;;
3433;SDS011;1730;41.932;25.548;2023-08-20T03:06:14;14.73;;;13.50;;
3433;SDS011;1730;41.932;25.548;2023-08-20T03:08:41;16.00;;;14.40;;
3433;SDS011;1730;41.932;25.548;2023-08-20T03:11:07;14.63;;;13.33;;
3433;SDS011;1730;41.932;25.548;2023-08-20T03:13:34;19.03;;;13.00;;
3433;SDS011;1730;41.932;25.548;2023-08-20T03:16:04;14.73;;;13.23;;
3433;SDS011;1730;41.932;25.548;2023-08-20T03:18:30;15.87;;;14.20;;
3433;SDS011;1730;41.932;25.548;2023-08-20T03:20:56;20.20;;;14.43;;
3433;SDS011;1730;41.932;25.548;2023-08-20T03:23:22;14.57;;;13.17;;
3433;SDS011;1730;41.932;25.548;2023-08-20T03:25:48;16.07;;;13.70;;
3433;SDS011;1730;41.932;25.548;2023-08-20T03:28:14;14.80;;;13.30;;
3433;SDS011;1730;41.932;25.548;2023-08-20T03:30:40;18.43;;;14.03;;
3433;SDS011;1730;41.932;25.548;2023-08-20T03:33:06;16.70;;;13.17;;
3433;SDS011;1730;41.932;25.548;2023-08-20T03:35:32;15.60;;;13.33;;
3433;SDS011;1730;41.932;25.548;2023-08-20T03:37:57;15.23;;;13.40;;
3433;SDS011;1730;41.932;25.548;2023-08-20T03:40:23;13.90;;;12.60;;
3433;SDS011;1730;41.932;25.548;2023-08-20T03:42:48;17.10;;;14.00;;
3433;SDS011;1730;41.932;25.548;2023-08-20T03:45:14;14.77;;;13.43;;
3433;SDS011;1730;41.932;25.548;2023-08-20T03:47:40;18.43;;;14.67;;
3433;SDS011;1730;41.932;25.548;2023-08-20T03:50:09;16.97;;;13.57;;
3433;SDS011;1730;41.932;25.548;2023-08-20T03:52:35;15.53;;;14.13;;
3433;SDS011;1730;41.932;25.548;2023-08-20T03:55:00;14.63;;;12.53;;
3433;SDS011;1730;41.932;25.548;2023-08-20T03:57:27;15.00;;;13.40;;
3433;SDS011;1730;41.932;25.548;2023-08-20T03:59:54;14.40;;;13.00;;
3433;SDS011;1730;41.932;25.548;2023-08-20T04:02:19;14.70;;;13.40;;
3433;SDS011;1730;41.932;25.548;2023-08-20T04:04:45;15.10;;;12.70;;
3433;SDS011;1730;41.932;25.548;2023-08-20T04:07:12;14.03;;;12.60;;
3433;SDS011;1730;41.932;25.548;2023-08-20T04:09:38;13.80;;;12.40;;
3433;SDS011;1730;41.932;25.548;2023-08-20T04:12:05;14.83;;;13.20;;
3433;SDS011;1730;41.932;25.548;2023-08-20T04:14:30;13.63;;;12.30;;
3433;SDS011;1730;41.932;25.548;2023-08-20T04:16:56;13.60;;;12.50;;
3433;SDS011;1730;41.932;25.548;2023-08-20T04:19:22;18.03;;;13.17;;
3433;SDS011;1730;41.932;25.548;2023-08-20T04:21:47;13.67;;;12.37;;
3433;SDS011;1730;41.932;25.548;2023-08-20T04:24:16;17.73;;;13.03;;
3433;SDS011;1730;41.932;25.548;2023-08-20T04:26:41;14.90;;;13.57;;
3433;SDS011;1730;41.932;25.548;2023-08-20T04:29:09;17.50;;;13.60;;
3433;SDS011;1730;41.932;25.548;2023-08-20T04:31:34;15.27;;;13.10;;
3433;SDS011;1730;41.932;25.548;2023-08-20T04:34:00;13.50;;;12.30;;
3433;SDS011;1730;41.932;25.548;2023-08-20T04:36:26;14.03;;;12.50;;
3433;SDS011;1730;41.932;25.548;2023-08-20T04:38:52;12.90;;;11.80;;
3433;SDS011;1730;41.932;25.548;2023-08-20T04:41:17;16.73;;;11.53;;
3433;SDS011;1730;41.932;25.548;2023-08-20T04:43:44;15.37;;;12.00;;
3433;SDS011;1730;41.932;25.548;2023-08-20T04:46:10;14.27;;;11.53;;
3433;SDS011;1730;41.932;25.548;2023-08-20T04:48:35;13.83;;;11.60;;
3433;SDS011;1730;41.932;25.548;2023-08-20T04:51:01;12.47;;;11.13;;
3433;SDS011;1730;41.932;25.548;2023-08-20T04:53:26;11.63;;;10.63;;
3433;SDS011;1730;41.932;25.548;2023-08-20T04:55:53;10.70;;;9.77;;
3433;SDS011;1730;41.932;25.548;2023-08-20T04:58:21;10.80;;;10.00;;
3433;SDS011;1730;41.932;25.548;2023-08-20T05:00:51;10.50;;;9.47;;
3433;SDS011;1730;41.932;25.548;2023-08-20T05:03:16;10.17;;;9.20;;
3433;SDS011;1730;41.932;25.548;2023-08-20T05:05:47;13.93;;;10.07;;
3433;SDS011;1730;41.932;25.548;2023-08-20T05:08:14;11.03;;;10.03;;
3433;SDS011;1730;41.932;25.548;2023-08-20T05:10:39;12.53;;;10.30;;
3433;SDS011;1730;41.932;25.548;2023-08-20T05:13:05;12.20;;;10.07;;
3433;SDS011;1730;41.932;25.548;2023-08-20T05:15:30;10.07;;;9.20;;
3433;SDS011;1730;41.932;25.548;2023-08-20T05:17:56;10.10;;;9.20;;
3433;SDS011;1730;41.932;25.548;2023-08-20T05:20:22;9.70;;;9.00;;
3433;SDS011;1730;41.932;25.548;2023-08-20T05:22:49;15.53;;;9.60;;
3433;SDS011;1730;41.932;25.548;2023-08-20T05:25:14;9.93;;;9.20;;
3433;SDS011;1730;41.932;25.548;2023-08-20T05:27:41;11.03;;;10.00;;
3433;SDS011;1730;41.932;25.548;2023-08-20T05:30:07;10.10;;;9.20;;
3433;SDS011;1730;41.932;25.548;2023-08-20T05:32:34;11.03;;;10.13;;
3433;SDS011;1730;41.932;25.548;2023-08-20T05:35:01;13.40;;;10.20;;
3433;SDS011;1730;41.932;25.548;2023-08-20T05:37:26;11.47;;;10.40;;
3433;SDS011;1730;41.932;25.548;2023-08-20T05:39:52;12.53;;;10.20;;
3433;SDS011;1730;41.932;25.548;2023-08-20T05:42:17;18.23;;;11.27;;
3433;SDS011;1730;41.932;25.548;2023-08-20T05:44:43;11.50;;;10.30;;
3433;SDS011;1730;41.932;25.548;2023-08-20T05:47:08;11.77;;;10.60;;
3433;SDS011;1730;41.932;25.548;2023-08-20T05:49:34;13.97;;;10.97;;
3433;SDS011;1730;41.932;25.548;2023-08-20T05:51:59;11.90;;;10.90;;
3433;SDS011;1730;41.932;25.548;2023-08-20T05:54:25;10.67;;;9.77;;
3433;SDS011;1730;41.932;25.548;2023-08-20T05:56:53;11.67;;;10.50;;
3433;SDS011;1730;41.932;25.548;2023-08-20T05:59:18;10.33;;;9.63;;
3433;SDS011;1730;41.932;25.548;2023-08-20T06:01:45;12.80;;;11.00;;
3433;SDS011;1730;41.932;25.548;2023-08-20T06:04:10;11.13;;;10.20;;
3433;SDS011;1730;41.932;25.548;2023-08-20T06:06:35;12.50;;;11.40;;
3433;SDS011;1730;41.932;25.548;2023-08-20T06:09:01;11.60;;;10.60;;
3433;SDS011;1730;41.932;25.548;2023-08-20T06:11:27;11.50;;;10.40;;
3433;SDS011;1730;41.932;25.548;2023-08-20T06:13:52;12.50;;;10.60;;
3433;SDS011;1730;41.932;25.548;2023-08-20T06:16:21;11.60;;;10.10;;
3433;SDS011;1730;41.932;25.548;2023-08-20T06:18:48;11.90;;;10.90;;
3433;SDS011;1730;41.932;25.548;2023-08-20T06:21:13;14.13;;;12.50;;
3433;SDS011;1730;41.932;25.548;2023-08-20T06:23:39;13.20;;;11.90;;
3433;SDS011;1730;41.932;25.548;2023-08-20T06:26:04;16.60;;;13.97;;
3433;SDS011;1730;41.932;25.548;2023-08-20T06:28:30;15.80;;;13.20;;
3433;SDS011;1730;41.932;25.548;2023-08-20T06:30:56;14.63;;;12.90;;
3433;SDS011;1730;41.932;25.548;2023-08-20T06:33:22;18.37;;;12.50;;
3433;SDS011;1730;41.932;25.548;2023-08-20T06:35:48;14.53;;;12.23;;
3433;SDS011;1730;41.932;25.548;2023-08-20T06:38:16;13.40;;;12.10;;
3433;SDS011;1730;41.932;25.548;2023-08-20T06:40:42;13.67;;;12.30;;
3433;SDS011;1730;41.932;25.548;2023-08-20T06:43:08;14.30;;;11.77;;
3433;SDS011;1730;41.932;25.548;2023-08-20T06:45:34;12.40;;;11.20;;
3433;SDS011;1730;41.932;25.548;2023-08-20T06:47:59;12.10;;;10.90;;
3433;SDS011;1730;41.932;25.548;2023-08-20T06:50:25;14.70;;;11.40;;
3433;SDS011;1730;41.932;25.548;2023-08-20T06:52:50;12.53;;;11.27;;
3433;SDS011;1730;41.932;25.548;2023-08-20T06:55:16;12.73;;;11.40;;
3433;SDS011;1730;41.932;25.548;2023-08-20T06:57:43;12.37;;;10.73;;
3433;SDS011;1730;41.932;25.548;2023-08-20T07:00:08;11.27;;;10.27;;
3433;SDS011;1730;41.932;25.548;2023-08-20T07:02:34;18.87;;;11.47;;
3433;SDS011;1730;41.932;25.548;2023-08-20T07:05:00;14.27;;;11.53;;
3433;SDS011;1730;41.932;25.548;2023-08-20T07:07:25;14.93;;;11.20;;
3433;SDS011;1730;41.932;25.548;2023-08-20T07:09:51;12.10;;;11.00;;
3433;SDS011;1730;41.932;25.548;2023-08-20T07:12:16;12.27;;;10.43;;
3433;SDS011;1730;41.932;25.548;2023-08-20T07:14:43;11.17;;;10.27;;
3433;SDS011;1730;41.932;25.548;2023-08-20T07:17:09;11.60;;;10.60;;
3433;SDS011;1730;41.932;25.548;2023-08-20T07:19:37;10.80;;;9.90;;
3433;SDS011;1730;41.932;25.548;2023-08-20T07:22:05;11.73;;;10.60;;
3433;SDS011;1730;41.932;25.548;2023-08-20T07:24:33;11.40;;;10.10;;
3433;SDS011;1730;41.932;25.548;2023-08-20T07:27:00;10.47;;;9.60;;
3433;SDS011;1730;41.932;25.548;2023-08-20T07:29:29;10.97;;;9.87;;
3433;SDS011;1730;41.932;25.548;2023-08-20T07:31:58;12.37;;;9.93;;
3433;SDS011;1730;41.932;25.548;2023-08-20T07:34:23;10.27;;;9.23;;
3433;SDS011;1730;41.932;25.548;2023-08-20T07:36:49;15.03;;;10.03;;
3433;SDS011;1730;41.932;25.548;2023-08-20T07:39:14;9.93;;;9.03;;
3433;SDS011;1730;41.932;25.548;2023-08-20T07:41:40;9.50;;;8.60;;
3433;SDS011;1730;41.932;25.548;2023-08-20T07:44:06;9.53;;;8.77;;
3433;SDS011;1730;41.932;25.548;2023-08-20T07:46:32;8.10;;;7.40;;
3433;SDS011;1730;41.932;25.548;2023-08-20T07:48:57;8.57;;;7.77;;
3433;SDS011;1730;41.932;25.548;2023-08-20T07:51:23;15.50;;;7.80;;
3433;SDS011;1730;41.932;25.548;2023-08-20T07:53:49;10.03;;;7.47;;
3433;SDS011;1730;41.932;25.548;2023-08-20T07:56:15;9.07;;;8.23;;
3433;SDS011;1730;41.932;25.548;2023-08-20T07:58:41;11.43;;;8.17;;
3433;SDS011;1730;41.932;25.548;2023-08-20T08:01:07;7.83;;;7.03;;
3433;SDS011;1730;41.932;25.548;2023-08-20T08:03:33;7.73;;;7.30;;
3433;SDS011;1730;41.932;25.548;2023-08-20T08:05:59;8.00;;;7.40;;
3433;SDS011;1730;41.932;25.548;2023-08-20T08:08:24;12.73;;;11.33;;
3433;SDS011;1730;41.932;25.548;2023-08-20T08:10:50;7.57;;;6.87;;
3433;SDS011;1730;41.932;25.548;2023-08-20T08:13:18;7.17;;;6.57;;
3433;SDS011;1730;41.932;25.548;2023-08-20T08:15:45;7.50;;;6.87;;
3433;SDS011;1730;41.932;25.548;2023-08-20T08:18:11;9.30;;;6.73;;
3433;SDS011;1730;41.932;25.548;2023-08-20T08:20:38;6.67;;;5.73;;
3433;SDS011;1730;41.932;25.548;2023-08-20T08:23:03;6.60;;;6.10;;
3433;SDS011;1730;41.932;25.548;2023-08-20T08:25:30;7.73;;;6.87;;
3433;SDS011;1730;41.932;25.548;2023-08-20T08:27:56;9.70;;;5.67;;
3433;SDS011;1730;41.932;25.548;2023-08-20T08:30:25;6.93;;;6.33;;
3433;SDS011;1730;41.932;25.548;2023-08-20T08:32:51;6.63;;;6.13;;
3433;SDS011;1730;41.932;25.548;2023-08-20T08:35:16;6.87;;;6.27;;
3433;SDS011;1730;41.932;25.548;2023-08-20T08:37:42;7.40;;;6.60;;
3433;SDS011;1730;41.932;25.548;2023-08-20T08:40:08;6.20;;;5.80;;
3433;SDS011;1730;41.932;25.548;2023-08-20T08:42:34;5.87;;;5.40;;
3433;SDS011;1730;41.932;25.548;2023-08-20T08:44:59;5.97;;;5.57;;
3433;SDS011;1730;41.932;25.548;2023-08-20T08:47:25;6.37;;;6.07;;
3433;SDS011;1730;41.932;25.548;2023-08-20T08:49:52;6.33;;;5.83;;
3433;SDS011;1730;41.932;25.548;2023-08-20T08:52:22;7.63;;;5.90;;
3433;SDS011;1730;41.932;25.548;2023-08-20T08:54:48;6.73;;;4.93;;
3433;SDS011;1730;41.932;25.548;2023-08-20T08:57:14;6.73;;;6.07;;
3433;SDS011;1730;41.932;25.548;2023-08-20T08:59:41;6.27;;;5.70;;
3433;SDS011;1730;41.932;25.548;2023-08-20T09:02:10;9.20;;;4.83;;
3433;SDS011;1730;41.932;25.548;2023-08-20T09:04:38;7.37;;;5.47;;
3433;SDS011;1730;41.932;25.548;2023-08-20T09:07:06;5.80;;;5.17;;
3433;SDS011;1730;41.932;25.548;2023-08-20T09:09:37;5.63;;;5.10;;
3433;SDS011;1730;41.932;25.548;2023-08-20T09:12:11;9.20;;;7.90;;
3433;SDS011;1730;41.932;25.548;2023-08-20T09:14:39;7.73;;;6.00;;
3433;SDS011;1730;41.932;25.548;2023-08-20T09:17:05;18.57;;;5.30;;
3433;SDS011;1730;41.932;25.548;2023-08-20T09:19:35;5.60;;;5.10;;
3433;SDS011;1730;41.932;25.548;2023-08-20T09:22:04;8.07;;;5.07;;
3433;SDS011;1730;41.932;25.548;2023-08-20T09:24:33;11.93;;;4.93;;
3433;SDS011;1730;41.932;25.548;2023-08-20T09:27:12;11.90;;;6.70;;
3433;SDS011;1730;41.932;25.548;2023-08-20T09:32:17;4.67;;;4.27;;
3433;SDS011;1730;41.932;25.548;2023-08-20T09:34:44;5.00;;;4.70;;
3433;SDS011;1730;41.932;25.548;2023-08-20T09:37:11;10.10;;;4.70;;
3433;SDS011;1730;41.932;25.548;2023-08-20T09:39:38;5.00;;;4.60;;
3433;SDS011;1730;41.932;25.548;2023-08-20T09:42:04;4.97;;;4.30;;
3433;SDS011;1730;41.932;25.548;2023-08-20T09:44:35;8.47;;;5.10;;
3433;SDS011;1730;41.932;25.548;2023-08-20T09:47:02;8.03;;;5.23;;
3433;SDS011;1730;41.932;25.548;2023-08-20T09:49:32;4.03;;;3.70;;
3433;SDS011;1730;41.932;25.548;2023-08-20T09:52:06;5.87;;;4.40;;
3433;SDS011;1730;41.932;25.548;2023-08-20T09:57:23;4.33;;;4.03;;
3433;SDS011;1730;41.932;25.548;2023-08-20T09:59:55;4.27;;;3.97;;
3433;SDS011;1730;41.932;25.548;2023-08-20T10:02:23;4.00;;;3.67;;
3433;SDS011;1730;41.932;25.548;2023-08-20T10:04:50;4.17;;;3.90;;
3433;SDS011;1730;41.932;25.548;2023-08-20T10:07:16;4.13;;;3.93;;
3433;SDS011;1730;41.932;25.548;2023-08-20T10:09:42;3.93;;;3.73;;
3433;SDS011;1730;41.932;25.548;2023-08-20T10:12:12;4.53;;;4.17;;
3433;SDS011;1730;41.932;25.548;2023-08-20T10:14:38;4.23;;;3.57;;
3433;SDS011;1730;41.932;25.548;2023-08-20T10:17:08;6.30;;;4.10;;
3433;SDS011;1730;41.932;25.548;2023-08-20T10:19:36;9.03;;;4.80;;
3433;SDS011;1730;41.932;25.548;2023-08-20T10:22:03;10.07;;;4.77;;
3433;SDS011;1730;41.932;25.548;2023-08-20T10:24:39;6.37;;;4.20;;
3433;SDS011;1730;41.932;25.548;2023-08-20T10:27:09;4.20;;;3.80;;
3433;SDS011;1730;41.932;25.548;2023-08-20T10:29:38;4.70;;;4.33;;
3433;SDS011;1730;41.932;25.548;2023-08-20T10:32:11;4.33;;;3.93;;
3433;SDS011;1730;41.932;25.548;2023-08-20T10:34:39;7.30;;;4.97;;
3433;SDS011;1730;41.932;25.548;2023-08-20T10:37:14;4.30;;;4.00;;
3433;SDS011;1730;41.932;25.548;2023-08-20T10:40:02;7.30;;;4.33;;
3433;SDS011;1730;41.932;25.548;2023-08-20T10:42:29;5.33;;;4.67;;
3433;SDS011;1730;41.932;25.548;2023-08-20T10:47:44;8.63;;;4.07;;
3433;SDS011;1730;41.932;25.548;2023-08-20T10:50:11;4.77;;;4.10;;
3433;SDS011;1730;41.932;25.548;2023-08-20T10:52:50;4.70;;;4.30;;
3433;SDS011;1730;41.932;25.548;2023-08-20T10:55:24;6.10;;;4.10;;
3433;SDS011;1730;41.932;25.548;2023-08-20T10:57:56;5.07;;;4.23;;
3433;SDS011;1730;41.932;25.548;2023-08-20T11:00:24;14.70;;;4.23;;
3433;SDS011;1730;41.932;25.548;2023-08-20T11:02:50;5.90;;;4.60;;
3433;SDS011;1730;41.932;25.548;2023-08-20T11:05:19;5.77;;;4.50;;
3433;SDS011;1730;41.932;25.548;2023-08-20T11:07:47;7.47;;;4.70;;
3433;SDS011;1730;41.932;25.548;2023-08-20T11:10:13;4.80;;;4.30;;
3433;SDS011;1730;41.932;25.548;2023-08-20T11:12:41;11.73;;;4.23;;
3433;SDS011;1730;41.932;25.548;2023-08-20T11:15:08;4.53;;;4.23;;
3433;SDS011;1730;41.932;25.548;2023-08-20T11:17:39;14.70;;;4.70;;
3433;SDS011;1730;41.932;25.548;2023-08-20T11:20:15;7.83;;;4.23;;
3433;SDS011;1730;41.932;25.548;2023-08-20T11:22:44;4.73;;;4.33;;
3433;SDS011;1730;41.932;25.548;2023-08-20T11:25:15;4.53;;;4.13;;
3433;SDS011;1730;41.932;25.548;2023-08-20T11:27:44;5.00;;;4.63;;
3433;SDS011;1730;41.932;25.548;2023-08-20T11:30:10;5.40;;;4.70;;
3433;SDS011;1730;41.932;25.548;2023-08-20T11:32:39;5.27;;;4.60;;
3433;SDS011;1730;41.932;25.548;2023-08-20T11:35:07;7.23;;;4.50;;
3433;SDS011;1730;41.932;25.548;2023-08-20T11:37:34;4.77;;;4.40;;
3433;SDS011;1730;41.932;25.548;2023-08-20T11:40:00;7.00;;;4.00;;
3433;SDS011;1730;41.932;25.548;2023-08-20T11:42:26;4.30;;;4.00;;
3433;SDS011;1730;41.932;25.548;2023-08-20T11:44:54;7.83;;;4.20;;
3433;SDS011;1730;41.932;25.548;2023-08-20T11:47:21;4.10;;;3.70;;
3433;SDS011;1730;41.932;25.548;2023-08-20T11:49:46;7.93;;;5.40;;
3433;SDS011;1730;41.932;25.548;2023-08-20T11:52:12;4.50;;;4.20;;
3433;SDS011;1730;41.932;25.548;2023-08-20T11:54:43;4.80;;;4.40;;
3433;SDS011;1730;41.932;25.548;2023-08-20T11:57:10;5.53;;;4.73;;
3433;SDS011;1730;41.932;25.548;2023-08-20T11:59:36;4.23;;;3.93;;
3433;SDS011;1730;41.932;25.548;2023-08-20T12:02:06;5.60;;;5.00;;
3433;SDS011;1730;41.932;25.548;2023-08-20T12:04:34;7.73;;;4.90;;
3433;SDS011;1730;41.932;25.548;2023-08-20T12:07:05;10.37;;;5.00;;
3433;SDS011;1730;41.932;25.548;2023-08-20T12:09:34;5.60;;;4.57;;
3433;SDS011;1730;41.932;25.548;2023-08-20T12:12:00;5.57;;;4.70;;
3433;SDS011;1730;41.932;25.548;2023-08-20T12:14:28;6.10;;;4.83;;
3433;SDS011;1730;41.932;25.548;2023-08-20T12:16:54;4.87;;;4.57;;
3433;SDS011;1730;41.932;25.548;2023-08-20T12:19:20;4.63;;;4.23;;
3433;SDS011;1730;41.932;25.548;2023-08-20T12:21:48;5.00;;;4.43;;
3433;SDS011;1730;41.932;25.548;2023-08-20T12:24:15;4.40;;;3.97;;
3433;SDS011;1730;41.932;25.548;2023-08-20T12:26:41;6.17;;;4.80;;
3433;SDS011;1730;41.932;25.548;2023-08-20T12:29:07;6.00;;;4.50;;
3433;SDS011;1730;41.932;25.548;2023-08-20T12:31:34;4.90;;;4.57;;
3433;SDS011;1730;41.932;25.548;2023-08-20T12:34:00;7.40;;;4.20;;
3433;SDS011;1730;41.932;25.548;2023-08-20T12:36:29;6.30;;;4.20;;
3433;SDS011;1730;41.932;25.548;2023-08-20T12:38:55;5.10;;;4.20;;
3433;SDS011;1730;41.932;25.548;2023-08-20T12:41:23;11.57;;;3.87;;
3433;SDS011;1730;41.932;25.548;2023-08-20T12:43:49;5.60;;;3.40;;
3433;SDS011;1730;41.932;25.548;2023-08-20T12:46:14;8.03;;;3.73;;
3433;SDS011;1730;41.932;25.548;2023-08-20T12:48:40;5.23;;;4.20;;
3433;SDS011;1730;41.932;25.548;2023-08-20T12:51:06;4.67;;;4.17;;
3433;SDS011;1730;41.932;25.548;2023-08-20T12:53:32;5.00;;;3.77;;
3433;SDS011;1730;41.932;25.548;2023-08-20T12:55:59;7.47;;;4.60;;
3433;SDS011;1730;41.932;25.548;2023-08-20T12:58:25;4.73;;;4.10;;
3433;SDS011;1730;41.932;25.548;2023-08-20T13:00:50;4.37;;;4.07;;
3433;SDS011;1730;41.932;25.548;2023-08-20T13:03:17;5.60;;;4.00;;
3433;SDS011;1730;41.932;25.548;2023-08-20T13:05:44;6.23;;;3.70;;
3433;SDS011;1730;41.932;25.548;2023-08-20T13:08:12;4.20;;;3.83;;
3433;SDS011;1730;41.932;25.548;2023-08-20T13:10:39;4.63;;;4.33;;
3433;SDS011;1730;41.932;25.548;2023-08-20T13:13:05;6.80;;;3.97;;
3433;SDS011;1730;41.932;25.548;2023-08-20T13:15:35;4.10;;;3.70;;
3433;SDS011;1730;41.932;25.548;2023-08-20T13:18:01;9.33;;;4.47;;
3433;SDS011;1730;41.932;25.548;2023-08-20T13:20:27;6.23;;;4.77;;
3433;SDS011;1730;41.932;25.548;2023-08-20T13:22:53;5.80;;;5.20;;
3433;SDS011;1730;41.932;25.548;2023-08-20T13:25:19;5.80;;;4.73;;
3433;SDS011;1730;41.932;25.548;2023-08-20T13:27:48;6.87;;;4.50;;
3433;SDS011;1730;41.932;25.548;2023-08-20T13:30:13;6.60;;;5.10;;
3433;SDS011;1730;41.932;25.548;2023-08-20T13:32:39;5.00;;;4.60;;
3433;SDS011;1730;41.932;25.548;2023-08-20T13:35:06;14.30;;;5.37;;
3433;SDS011;1730;41.932;25.548;2023-08-20T13:37:34;5.63;;;5.23;;
3433;SDS011;1730;41.932;25.548;2023-08-20T13:40:00;5.90;;;4.77;;
3433;SDS011;1730;41.932;25.548;2023-08-20T13:42:26;6.00;;;4.60;;
3433;SDS011;1730;41.932;25.548;2023-08-20T13:44:52;10.13;;;5.80;;
3433;SDS011;1730;41.932;25.548;2023-08-20T13:47:18;7.93;;;5.80;;
3433;SDS011;1730;41.932;25.548;2023-08-20T13:49:44;5.67;;;5.37;;
3433;SDS011;1730;41.932;25.548;2023-08-20T13:52:09;5.23;;;4.70;;
3433;SDS011;1730;41.932;25.548;2023-08-20T13:54:35;7.83;;;5.03;;
3433;SDS011;1730;41.932;25.548;2023-08-20T13:57:05;5.17;;;4.67;;
3433;SDS011;1730;41.932;25.548;2023-08-20T13:59:30;6.00;;;5.50;;
3433;SDS011;1730;41.932;25.548;2023-08-20T14:01:57;5.93;;;5.17;;
3433;SDS011;1730;41.932;25.548;2023-08-20T14:04:24;5.90;;;5.40;;
3433;SDS011;1730;41.932;25.548;2023-08-20T14:06:49;9.10;;;6.03;;
3433;SDS011;1730;41.932;25.548;2023-08-20T14:09:15;5.70;;;5.30;;
3433;SDS011;1730;41.932;25.548;2023-08-20T14:11:44;5.50;;;5.10;;
3433;SDS011;1730;41.932;25.548;2023-08-20T14:14:10;7.10;;;4.73;;
3433;SDS011;1730;41.932;25.548;2023-08-20T14:16:36;14.47;;;5.80;;
3433;SDS011;1730;41.932;25.548;2023-08-20T14:19:01;8.80;;;5.70;;
3433;SDS011;1730;41.932;25.548;2023-08-20T14:21:30;6.00;;;5.50;;
3433;SDS011;1730;41.932;25.548;2023-08-20T14:23:56;5.83;;;5.43;;
3433;SDS011;1730;41.932;25.548;2023-08-20T14:26:22;6.20;;;4.93;;
3433;SDS011;1730;41.932;25.548;2023-08-20T14:28:48;5.87;;;5.30;;
3433;SDS011;1730;41.932;25.548;2023-08-20T14:31:14;6.40;;;5.73;;
3433;SDS011;1730;41.932;25.548;2023-08-20T14:33:40;5.80;;;5.40;;
3433;SDS011;1730;41.932;25.548;2023-08-20T14:36:05;5.43;;;5.03;;
3433;SDS011;1730;41.932;25.548;2023-08-20T14:38:32;7.73;;;5.33;;
3433;SDS011;1730;41.932;25.548;2023-08-20T14:41:00;6.70;;;5.03;;
3433;SDS011;1730;41.932;25.548;2023-08-20T14:43:27;6.00;;;4.70;;
3433;SDS011;1730;41.932;25.548;2023-08-20T14:45:53;14.57;;;4.97;;
3433;SDS011;1730;41.932;25.548;2023-08-20T14:48:19;6.93;;;4.67;;
3433;SDS011;1730;41.932;25.548;2023-08-20T14:50:45;7.10;;;4.77;;
3433;SDS011;1730;41.932;25.548;2023-08-20T14:53:11;5.00;;;4.70;;
3433;SDS011;1730;41.932;25.548;2023-08-20T14:55:36;8.13;;;4.70;;
3433;SDS011;1730;41.932;25.548;2023-08-20T14:58:02;5.00;;;4.60;;
3433;SDS011;1730;41.932;25.548;2023-08-20T15:00:29;8.10;;;4.43;;
3433;SDS011;1730;41.932;25.548;2023-08-20T15:02:57;7.03;;;4.13;;